This is the latest recevied weather packets stored in our database for station/object WA1RYQ. If no packets are shown the sender has not sent any weather packets the latest 10 day(s).
| Time | Temp. | Humidity | Pressure | Rain* | Wind** | Luminosity | Snow |
|---|---|---|---|---|---|---|---|
| 1777862107 | 22.22° C | 71% | 1017.2 hPa | 0 mm | - | 0 W/m² | - |
| 1777861826 | 22.22° C | 71% | 1017.1 hPa | 0 mm | - | 0 W/m² | - |
| 1777860928 | 22.22° C | 70% | 1016.8 hPa | 0 mm | - | 0 W/m² | - |
| 1777855859 | 22.78° C | 71% | 1015.8 hPa | 0 mm | - | 0 W/m² | - |
| 1777855240 | 22.78° C | 71% | 1015.7 hPa | 0 mm | - | 0 W/m² | - |
| 1777851360 | 23.33° C | 69% | 1015.4 hPa | 0 mm | - | 25 W/m² | - |
| 1777844419 | 25.56° C | 63% | 1015.3 hPa | 0 mm | - | 65 W/m² | - |
| 1777842635 | 26.11° C | 62% | 1015.3 hPa | 0 mm | - | 125 W/m² | - |
| 1777840510 | 26.67° C | 61% | 1015.4 hPa | 0 mm | - | 664 W/m² | - |
| 1777838759 | 27.78° C | 55% | 1015.9 hPa | 0 mm | - | 758 W/m² | - |
| 1777838425 | 27.22° C | 57% | 1016 hPa | 0 mm | - | 789 W/m² | - |
| 1777837555 | 27.22° C | 54% | 1016.3 hPa | 0 mm | - | 747 W/m² | - |
| 1777836921 | 26.67° C | 56% | 1016.4 hPa | 0 mm | - | 826 W/m² | - |
| 1777836358 | 27.78° C | 55% | 1016.4 hPa | 0 mm | - | 278 W/m² | - |
| 1777835739 | 26.67° C | 58% | 1016.6 hPa | 0 mm | - | 879 W/m² | - |
| 1777834856 | 27.22° C | 57% | 1016.9 hPa | 0 mm | - | 1021 W/m² | - |
| 1777834239 | 27.22° C | 60% | 1017.2 hPa | 0 mm | - | 1065 W/m² | - |
| 1777833959 | 25.56° C | 60% | 1017.2 hPa | 0 mm | - | 330 W/m² | - |
| 1777831215 | 26.11° C | 57% | 1017.7 hPa | 0 mm | - | 308 W/m² | - |
| 1777830035 | 25° C | 61% | 1017.7 hPa | 0 mm | - | 1132 W/m² | - |
| 1777828236 | 25° C | 61% | 1018.1 hPa | 0 mm | - | 1153 W/m² | - |
| 1777827349 | 24.44° C | 59% | 1018.2 hPa | 0 mm | - | 411 W/m² | - |
| 1777825820 | 24.44° C | 61% | 1018.4 hPa | 0 mm | - | 1079 W/m² | - |
| 1777825257 | 25° C | 60% | 1018.4 hPa | 0 mm | - | 599 W/m² | - |
| 1777823731 | 23.33° C | 64% | 1018.5 hPa | 0 mm | - | 868 W/m² | - |
* Rain latest hour (hover to see other rain measurements)
** Current wind speed in m/s (hover to see current wind gust speed)